Terminal Aerodrome Forecast
Issued by NWS Charleston, WV

Current Version | Previous Version | Text Only | Print | Product List | Glossary Off
Versions: 1 2 3 4 5 6 7 8 9 10 11 12 13 14 15 16 17 18 19 20 21 22 23

127
FTUS41 KRLX 281137
TAFHTS
TAF
KHTS 281137Z 2812/2912 VRB03KT 6SM SHRA BR BKN035
     FM281300 25004KT P6SM VCSH BKN015
     FM282000 31005KT P6SM BKN025
     FM290200 35004KT P6SM BKN012=

USA.gov is the U.S. government's official web portal to all federal, state and local government web resources and services.